sensor_id;sensor_type;location;lat;lon;timestamp;temperature;humidity
12152;DHT22;6139;51.274;7.128;2023-06-26T00:00:53;24.10;1.00
12152;DHT22;6139;51.274;7.128;2023-06-26T00:01:55;24.10;1.00
12152;DHT22;6139;51.274;7.128;2023-06-26T00:02:56;24.10;1.00
12152;DHT22;6139;51.274;7.128;2023-06-26T00:03:58;24.10;1.00
12152;DHT22;6139;51.274;7.128;2023-06-26T00:04:59;24.10;1.00
12152;DHT22;6139;51.274;7.128;2023-06-26T00:06:04;24.10;1.00
12152;DHT22;6139;51.274;7.128;2023-06-26T00:07:05;24.10;1.00
12152;DHT22;6139;51.274;7.128;2023-06-26T00:08:07;24.10;1.00
12152;DHT22;6139;51.274;7.128;2023-06-26T00:09:08;24.10;1.00
12152;DHT22;6139;51.274;7.128;2023-06-26T00:10:10;24.10;1.00
12152;DHT22;6139;51.274;7.128;2023-06-26T00:11:11;24.00;1.00
12152;DHT22;6139;51.274;7.128;2023-06-26T00:12:13;24.00;1.00
12152;DHT22;6139;51.274;7.128;2023-06-26T00:13:14;24.00;1.00
12152;DHT22;6139;51.274;7.128;2023-06-26T00:14:16;24.00;1.00
12152;DHT22;6139;51.274;7.128;2023-06-26T00:15:17;24.00;1.00
12152;DHT22;6139;51.274;7.128;2023-06-26T00:16:19;24.00;1.00
12152;DHT22;6139;51.274;7.128;2023-06-26T00:17:20;23.90;1.00
12152;DHT22;6139;51.274;7.128;2023-06-26T00:18:22;24.00;1.00
12152;DHT22;6139;51.274;7.128;2023-06-26T00:19:23;23.90;1.00
12152;DHT22;6139;51.274;7.128;2023-06-26T00:20:25;23.90;1.00
12152;DHT22;6139;51.274;7.128;2023-06-26T00:21:28;23.90;1.00
12152;DHT22;6139;51.274;7.128;2023-06-26T00:22:30;23.90;1.00
12152;DHT22;6139;51.274;7.128;2023-06-26T00:23:31;23.90;1.00
12152;DHT22;6139;51.274;7.128;2023-06-26T00:24:33;23.80;1.00
12152;DHT22;6139;51.274;7.128;2023-06-26T00:25:34;23.80;1.00
12152;DHT22;6139;51.274;7.128;2023-06-26T00:26:36;23.80;1.00
12152;DHT22;6139;51.274;7.128;2023-06-26T00:27:37;23.80;1.00
12152;DHT22;6139;51.274;7.128;2023-06-26T00:28:39;23.80;1.00
12152;DHT22;6139;51.274;7.128;2023-06-26T00:29:40;23.80;1.00
12152;DHT22;6139;51.274;7.128;2023-06-26T00:30:42;23.80;1.00
12152;DHT22;6139;51.274;7.128;2023-06-26T00:31:43;23.90;1.00
12152;DHT22;6139;51.274;7.128;2023-06-26T00:32:45;23.90;1.00
12152;DHT22;6139;51.274;7.128;2023-06-26T00:33:46;23.80;1.00
12152;DHT22;6139;51.274;7.128;2023-06-26T00:34:48;23.90;1.00
12152;DHT22;6139;51.274;7.128;2023-06-26T00:35:51;23.90;1.00
12152;DHT22;6139;51.274;7.128;2023-06-26T00:36:54;23.90;1.00
12152;DHT22;6139;51.274;7.128;2023-06-26T00:37:55;23.80;1.00
12152;DHT22;6139;51.274;7.128;2023-06-26T00:38:57;23.80;1.00
12152;DHT22;6139;51.274;7.128;2023-06-26T00:39:58;23.80;1.00
12152;DHT22;6139;51.274;7.128;2023-06-26T00:41:00;23.80;1.00
12152;DHT22;6139;51.274;7.128;2023-06-26T00:42:01;23.80;1.00
12152;DHT22;6139;51.274;7.128;2023-06-26T00:43:03;23.80;1.00
12152;DHT22;6139;51.274;7.128;2023-06-26T00:44:04;23.90;1.00
12152;DHT22;6139;51.274;7.128;2023-06-26T00:45:07;23.80;1.00
12152;DHT22;6139;51.274;7.128;2023-06-26T00:46:10;23.80;1.00
12152;DHT22;6139;51.274;7.128;2023-06-26T00:47:15;23.80;1.00
12152;DHT22;6139;51.274;7.128;2023-06-26T00:48:17;23.80;1.00
12152;DHT22;6139;51.274;7.128;2023-06-26T00:49:19;23.70;1.00
12152;DHT22;6139;51.274;7.128;2023-06-26T00:50:20;23.80;1.00
12152;DHT22;6139;51.274;7.128;2023-06-26T00:51:22;23.70;1.00
12152;DHT22;6139;51.274;7.128;2023-06-26T00:52:26;23.70;1.00
12152;DHT22;6139;51.274;7.128;2023-06-26T00:53:28;23.70;1.00
12152;DHT22;6139;51.274;7.128;2023-06-26T00:54:29;23.70;1.00
12152;DHT22;6139;51.274;7.128;2023-06-26T00:55:31;23.70;1.00
12152;DHT22;6139;51.274;7.128;2023-06-26T00:56:32;23.70;1.00
12152;DHT22;6139;51.274;7.128;2023-06-26T00:57:35;23.70;1.00
12152;DHT22;6139;51.274;7.128;2023-06-26T00:58:36;23.70;1.00
12152;DHT22;6139;51.274;7.128;2023-06-26T00:59:38;23.70;1.00
12152;DHT22;6139;51.274;7.128;2023-06-26T01:00:39;23.70;1.00
12152;DHT22;6139;51.274;7.128;2023-06-26T01:01:41;23.70;1.00
12152;DHT22;6139;51.274;7.128;2023-06-26T01:02:44;23.70;1.00
12152;DHT22;6139;51.274;7.128;2023-06-26T01:03:48;23.60;1.00
12152;DHT22;6139;51.274;7.128;2023-06-26T01:04:52;23.60;1.00
12152;DHT22;6139;51.274;7.128;2023-06-26T01:05:56;23.70;1.00
12152;DHT22;6139;51.274;7.128;2023-06-26T01:06:59;23.60;1.00
12152;DHT22;6139;51.274;7.128;2023-06-26T01:08:04;23.70;1.00
12152;DHT22;6139;51.274;7.128;2023-06-26T01:09:05;23.60;1.00
12152;DHT22;6139;51.274;7.128;2023-06-26T01:10:08;23.70;1.00
12152;DHT22;6139;51.274;7.128;2023-06-26T01:11:09;23.60;1.00
12152;DHT22;6139;51.274;7.128;2023-06-26T01:12:12;23.60;1.00
12152;DHT22;6139;51.274;7.128;2023-06-26T01:13:14;23.60;1.00
12152;DHT22;6139;51.274;7.128;2023-06-26T01:14:16;23.60;1.00
12152;DHT22;6139;51.274;7.128;2023-06-26T01:15:19;23.60;1.00
12152;DHT22;6139;51.274;7.128;2023-06-26T01:16:21;23.60;1.00
12152;DHT22;6139;51.274;7.128;2023-06-26T01:17:24;23.60;1.00
12152;DHT22;6139;51.274;7.128;2023-06-26T01:18:26;23.60;1.00
12152;DHT22;6139;51.274;7.128;2023-06-26T01:19:29;23.60;1.00
12152;DHT22;6139;51.274;7.128;2023-06-26T01:20:32;23.60;1.00
12152;DHT22;6139;51.274;7.128;2023-06-26T01:21:35;23.60;1.00
12152;DHT22;6139;51.274;7.128;2023-06-26T01:22:47;23.50;1.00
12152;DHT22;6139;51.274;7.128;2023-06-26T01:24:04;23.60;1.00
12152;DHT22;6139;51.274;7.128;2023-06-26T01:25:15;23.60;1.00
12152;DHT22;6139;51.274;7.128;2023-06-26T01:26:21;23.50;1.00
12152;DHT22;6139;51.274;7.128;2023-06-26T01:27:25;23.50;1.00
12152;DHT22;6139;51.274;7.128;2023-06-26T01:28:27;23.50;1.00
12152;DHT22;6139;51.274;7.128;2023-06-26T01:29:31;23.50;1.00
12152;DHT22;6139;51.274;7.128;2023-06-26T01:30:37;23.50;1.00
12152;DHT22;6139;51.274;7.128;2023-06-26T01:31:40;23.40;1.00
12152;DHT22;6139;51.274;7.128;2023-06-26T01:32:42;23.40;1.00
12152;DHT22;6139;51.274;7.128;2023-06-26T01:33:44;23.40;1.00
12152;DHT22;6139;51.274;7.128;2023-06-26T01:34:45;23.40;1.00
12152;DHT22;6139;51.274;7.128;2023-06-26T01:35:48;23.30;1.00
12152;DHT22;6139;51.274;7.128;2023-06-26T01:36:49;23.40;1.00
12152;DHT22;6139;51.274;7.128;2023-06-26T01:37:51;23.30;1.00
12152;DHT22;6139;51.274;7.128;2023-06-26T01:38:52;23.30;1.00
12152;DHT22;6139;51.274;7.128;2023-06-26T01:39:54;23.30;1.00
12152;DHT22;6139;51.274;7.128;2023-06-26T01:40:55;23.30;1.00
12152;DHT22;6139;51.274;7.128;2023-06-26T01:41:58;23.30;1.00
12152;DHT22;6139;51.274;7.128;2023-06-26T01:42:59;23.30;1.00
12152;DHT22;6139;51.274;7.128;2023-06-26T01:44:11;23.30;1.00
12152;DHT22;6139;51.274;7.128;2023-06-26T01:45:22;23.30;1.00
12152;DHT22;6139;51.274;7.128;2023-06-26T01:46:29;23.20;1.00
12152;DHT22;6139;51.274;7.128;2023-06-26T01:47:35;23.30;1.00
12152;DHT22;6139;51.274;7.128;2023-06-26T01:48:44;23.30;1.00
12152;DHT22;6139;51.274;7.128;2023-06-26T01:49:49;23.20;1.00
12152;DHT22;6139;51.274;7.128;2023-06-26T01:50:53;23.30;1.00
12152;DHT22;6139;51.274;7.128;2023-06-26T01:52:02;23.30;1.00
12152;DHT22;6139;51.274;7.128;2023-06-26T01:53:11;23.20;1.00
12152;DHT22;6139;51.274;7.128;2023-06-26T01:54:17;23.20;1.00
12152;DHT22;6139;51.274;7.128;2023-06-26T01:55:23;23.20;1.00
12152;DHT22;6139;51.274;7.128;2023-06-26T01:56:27;23.20;1.00
12152;DHT22;6139;51.274;7.128;2023-06-26T01:57:32;23.20;1.00
12152;DHT22;6139;51.274;7.128;2023-06-26T01:58:35;23.10;1.00
12152;DHT22;6139;51.274;7.128;2023-06-26T01:59:40;23.10;1.00
12152;DHT22;6139;51.274;7.128;2023-06-26T02:00:43;23.10;1.00
12152;DHT22;6139;51.274;7.128;2023-06-26T02:01:45;23.10;1.00
12152;DHT22;6139;51.274;7.128;2023-06-26T02:02:46;23.10;1.00
12152;DHT22;6139;51.274;7.128;2023-06-26T02:03:48;23.10;1.00
12152;DHT22;6139;51.274;7.128;2023-06-26T02:04:49;23.10;1.00
12152;DHT22;6139;51.274;7.128;2023-06-26T02:05:51;23.10;1.00
12152;DHT22;6139;51.274;7.128;2023-06-26T02:06:52;23.10;1.00
12152;DHT22;6139;51.274;7.128;2023-06-26T02:07:55;23.10;1.00
12152;DHT22;6139;51.274;7.128;2023-06-26T02:08:57;23.10;1.00
12152;DHT22;6139;51.274;7.128;2023-06-26T02:09:58;23.10;1.00
12152;DHT22;6139;51.274;7.128;2023-06-26T02:10:59;23.10;1.00
12152;DHT22;6139;51.274;7.128;2023-06-26T02:12:01;23.00;1.00
12152;DHT22;6139;51.274;7.128;2023-06-26T02:13:04;23.00;1.00
12152;DHT22;6139;51.274;7.128;2023-06-26T02:14:06;23.00;1.00
12152;DHT22;6139;51.274;7.128;2023-06-26T02:15:08;23.00;1.00
12152;DHT22;6139;51.274;7.128;2023-06-26T02:16:10;23.00;1.00
12152;DHT22;6139;51.274;7.128;2023-06-26T02:17:11;23.00;1.00
12152;DHT22;6139;51.274;7.128;2023-06-26T02:18:13;22.90;1.00
12152;DHT22;6139;51.274;7.128;2023-06-26T02:19:14;23.00;1.00
12152;DHT22;6139;51.274;7.128;2023-06-26T02:20:21;22.90;1.00
12152;DHT22;6139;51.274;7.128;2023-06-26T02:21:22;22.90;1.00
12152;DHT22;6139;51.274;7.128;2023-06-26T02:22:24;22.90;1.00
12152;DHT22;6139;51.274;7.128;2023-06-26T02:23:25;22.80;1.00
12152;DHT22;6139;51.274;7.128;2023-06-26T02:24:27;22.80;1.00
12152;DHT22;6139;51.274;7.128;2023-06-26T02:25:32;22.80;1.00
12152;DHT22;6139;51.274;7.128;2023-06-26T02:26:34;22.80;1.00
12152;DHT22;6139;51.274;7.128;2023-06-26T02:27:35;22.80;1.00
12152;DHT22;6139;51.274;7.128;2023-06-26T02:28:38;22.80;1.00
12152;DHT22;6139;51.274;7.128;2023-06-26T02:29:40;22.80;1.00
12152;DHT22;6139;51.274;7.128;2023-06-26T02:30:43;22.80;1.00
12152;DHT22;6139;51.274;7.128;2023-06-26T02:31:44;22.80;1.00
12152;DHT22;6139;51.274;7.128;2023-06-26T02:32:46;22.80;1.00
12152;DHT22;6139;51.274;7.128;2023-06-26T02:33:47;22.80;1.00
12152;DHT22;6139;51.274;7.128;2023-06-26T02:34:51;22.80;1.00
12152;DHT22;6139;51.274;7.128;2023-06-26T02:35:53;22.80;1.00
12152;DHT22;6139;51.274;7.128;2023-06-26T02:36:54;22.70;1.00
12152;DHT22;6139;51.274;7.128;2023-06-26T02:37:56;22.70;1.00
12152;DHT22;6139;51.274;7.128;2023-06-26T02:38:57;22.70;1.00
12152;DHT22;6139;51.274;7.128;2023-06-26T02:40:00;22.70;1.00
12152;DHT22;6139;51.274;7.128;2023-06-26T02:41:01;22.70;1.00
12152;DHT22;6139;51.274;7.128;2023-06-26T02:42:04;22.60;1.00
12152;DHT22;6139;51.274;7.128;2023-06-26T02:43:06;22.60;1.00
12152;DHT22;6139;51.274;7.128;2023-06-26T02:44:09;22.60;1.00
12152;DHT22;6139;51.274;7.128;2023-06-26T02:45:12;22.60;1.00
12152;DHT22;6139;51.274;7.128;2023-06-26T02:46:14;22.60;1.00
12152;DHT22;6139;51.274;7.128;2023-06-26T02:47:15;22.60;1.00
12152;DHT22;6139;51.274;7.128;2023-06-26T02:48:18;22.60;1.00
12152;DHT22;6139;51.274;7.128;2023-06-26T02:49:19;22.50;1.00
12152;DHT22;6139;51.274;7.128;2023-06-26T02:50:21;22.40;1.00
12152;DHT22;6139;51.274;7.128;2023-06-26T02:51:38;22.40;1.00
12152;DHT22;6139;51.274;7.128;2023-06-26T02:52:47;22.40;1.00
12152;DHT22;6139;51.274;7.128;2023-06-26T02:53:53;22.40;1.00
12152;DHT22;6139;51.274;7.128;2023-06-26T02:54:55;22.30;1.00
12152;DHT22;6139;51.274;7.128;2023-06-26T02:55:56;22.30;1.00
12152;DHT22;6139;51.274;7.128;2023-06-26T02:56:58;22.20;1.00
12152;DHT22;6139;51.274;7.128;2023-06-26T02:58:03;22.20;1.00
12152;DHT22;6139;51.274;7.128;2023-06-26T02:59:06;22.20;1.00
12152;DHT22;6139;51.274;7.128;2023-06-26T03:00:10;22.10;1.00
12152;DHT22;6139;51.274;7.128;2023-06-26T03:01:18;22.10;1.00
12152;DHT22;6139;51.274;7.128;2023-06-26T03:02:21;22.10;1.00
12152;DHT22;6139;51.274;7.128;2023-06-26T03:03:23;22.00;1.00
12152;DHT22;6139;51.274;7.128;2023-06-26T03:04:24;22.00;1.00
12152;DHT22;6139;51.274;7.128;2023-06-26T03:05:26;22.00;1.00
12152;DHT22;6139;51.274;7.128;2023-06-26T03:06:27;22.00;1.00
12152;DHT22;6139;51.274;7.128;2023-06-26T03:07:29;22.00;1.00
12152;DHT22;6139;51.274;7.128;2023-06-26T03:08:30;22.00;1.00
12152;DHT22;6139;51.274;7.128;2023-06-26T03:09:33;22.00;1.00
12152;DHT22;6139;51.274;7.128;2023-06-26T03:10:34;22.00;1.00
12152;DHT22;6139;51.274;7.128;2023-06-26T03:11:36;22.00;1.00
12152;DHT22;6139;51.274;7.128;2023-06-26T03:12:37;22.00;1.00
12152;DHT22;6139;51.274;7.128;2023-06-26T03:13:39;22.00;1.00
12152;DHT22;6139;51.274;7.128;2023-06-26T03:14:40;21.90;1.00
12152;DHT22;6139;51.274;7.128;2023-06-26T03:15:44;21.90;1.00
12152;DHT22;6139;51.274;7.128;2023-06-26T03:16:45;21.90;1.00
12152;DHT22;6139;51.274;7.128;2023-06-26T03:17:47;21.90;1.00
12152;DHT22;6139;51.274;7.128;2023-06-26T03:18:55;21.80;1.00
12152;DHT22;6139;51.274;7.128;2023-06-26T03:19:57;21.70;1.00
12152;DHT22;6139;51.274;7.128;2023-06-26T03:21:04;21.70;1.00
12152;DHT22;6139;51.274;7.128;2023-06-26T03:22:06;21.80;1.00
12152;DHT22;6139;51.274;7.128;2023-06-26T03:23:07;21.80;1.00
12152;DHT22;6139;51.274;7.128;2023-06-26T03:24:09;21.70;1.00
12152;DHT22;6139;51.274;7.128;2023-06-26T03:25:11;21.70;1.00
12152;DHT22;6139;51.274;7.128;2023-06-26T03:26:13;21.70;1.00
12152;DHT22;6139;51.274;7.128;2023-06-26T03:27:15;21.70;1.00
12152;DHT22;6139;51.274;7.128;2023-06-26T03:28:18;21.70;1.00
12152;DHT22;6139;51.274;7.128;2023-06-26T03:29:21;21.70;1.00
12152;DHT22;6139;51.274;7.128;2023-06-26T03:30:23;21.70;1.00
12152;DHT22;6139;51.274;7.128;2023-06-26T03:31:27;21.70;1.00
12152;DHT22;6139;51.274;7.128;2023-06-26T03:32:29;21.70;1.00
12152;DHT22;6139;51.274;7.128;2023-06-26T03:33:31;21.70;1.00
12152;DHT22;6139;51.274;7.128;2023-06-26T03:34:33;21.70;1.00
12152;DHT22;6139;51.274;7.128;2023-06-26T03:35:34;21.70;1.00
12152;DHT22;6139;51.274;7.128;2023-06-26T03:36:36;21.70;1.00
12152;DHT22;6139;51.274;7.128;2023-06-26T03:37:38;21.70;1.00
12152;DHT22;6139;51.274;7.128;2023-06-26T03:38:41;21.70;1.00
12152;DHT22;6139;51.274;7.128;2023-06-26T03:39:43;21.70;1.00
12152;DHT22;6139;51.274;7.128;2023-06-26T03:40:44;21.70;1.00
12152;DHT22;6139;51.274;7.128;2023-06-26T03:41:46;21.70;1.00
12152;DHT22;6139;51.274;7.128;2023-06-26T03:42:47;21.70;1.00
12152;DHT22;6139;51.274;7.128;2023-06-26T03:43:49;21.70;1.00
12152;DHT22;6139;51.274;7.128;2023-06-26T03:44:56;21.70;1.00
12152;DHT22;6139;51.274;7.128;2023-06-26T03:45:57;21.60;1.00
12152;DHT22;6139;51.274;7.128;2023-06-26T03:47:01;21.60;1.00
12152;DHT22;6139;51.274;7.128;2023-06-26T03:48:04;21.60;1.00
12152;DHT22;6139;51.274;7.128;2023-06-26T03:49:05;21.60;1.00
12152;DHT22;6139;51.274;7.128;2023-06-26T03:50:07;21.60;1.00
12152;DHT22;6139;51.274;7.128;2023-06-26T03:51:09;21.60;1.00
12152;DHT22;6139;51.274;7.128;2023-06-26T03:52:12;21.60;1.00
12152;DHT22;6139;51.274;7.128;2023-06-26T03:53:14;21.60;1.00
12152;DHT22;6139;51.274;7.128;2023-06-26T03:54:16;21.60;1.00
12152;DHT22;6139;51.274;7.128;2023-06-26T03:55:17;21.60;1.00
12152;DHT22;6139;51.274;7.128;2023-06-26T03:56:20;21.60;1.00
12152;DHT22;6139;51.274;7.128;2023-06-26T03:57:21;21.60;1.00
12152;DHT22;6139;51.274;7.128;2023-06-26T03:58:23;21.60;1.00
12152;DHT22;6139;51.274;7.128;2023-06-26T03:59:24;21.60;1.00
12152;DHT22;6139;51.274;7.128;2023-06-26T04:00:26;21.60;1.00
12152;DHT22;6139;51.274;7.128;2023-06-26T04:01:28;21.60;1.00
12152;DHT22;6139;51.274;7.128;2023-06-26T04:02:32;21.50;1.00
12152;DHT22;6139;51.274;7.128;2023-06-26T04:03:33;21.50;1.00
12152;DHT22;6139;51.274;7.128;2023-06-26T04:04:35;21.50;1.00
12152;DHT22;6139;51.274;7.128;2023-06-26T04:05:36;21.50;1.00
12152;DHT22;6139;51.274;7.128;2023-06-26T04:06:38;21.50;1.00
12152;DHT22;6139;51.274;7.128;2023-06-26T04:07:40;21.50;1.00
12152;DHT22;6139;51.274;7.128;2023-06-26T04:08:42;21.50;1.00
12152;DHT22;6139;51.274;7.128;2023-06-26T04:09:43;21.50;1.00
12152;DHT22;6139;51.274;7.128;2023-06-26T04:10:45;21.50;1.00
12152;DHT22;6139;51.274;7.128;2023-06-26T04:11:46;21.50;1.00
12152;DHT22;6139;51.274;7.128;2023-06-26T04:12:48;21.50;1.00
12152;DHT22;6139;51.274;7.128;2023-06-26T04:13:49;21.50;1.00
12152;DHT22;6139;51.274;7.128;2023-06-26T04:14:51;21.50;1.00
12152;DHT22;6139;51.274;7.128;2023-06-26T04:15:52;21.50;11.20
12152;DHT22;6139;51.274;7.128;2023-06-26T04:16:54;21.40;42.20
12152;DHT22;6139;51.274;7.128;2023-06-26T04:17:56;21.40;47.00
12152;DHT22;6139;51.274;7.128;2023-06-26T04:18:58;21.40;55.80
12152;DHT22;6139;51.274;7.128;2023-06-26T04:19:59;21.40;97.80
12152;DHT22;6139;51.274;7.128;2023-06-26T04:21:06;21.40;99.90
12152;DHT22;6139;51.274;7.128;2023-06-26T04:22:07;21.30;99.90
12152;DHT22;6139;51.274;7.128;2023-06-26T04:23:09;21.40;99.90
12152;DHT22;6139;51.274;7.128;2023-06-26T04:24:10;21.40;99.90
12152;DHT22;6139;51.274;7.128;2023-06-26T04:25:12;21.40;99.90
12152;DHT22;6139;51.274;7.128;2023-06-26T04:26:13;21.30;1.00
12152;DHT22;6139;51.274;7.128;2023-06-26T04:27:15;21.30;1.00
12152;DHT22;6139;51.274;7.128;2023-06-26T04:28:17;21.30;91.40
12152;DHT22;6139;51.274;7.128;2023-06-26T04:29:19;21.40;99.90
12152;DHT22;6139;51.274;7.128;2023-06-26T04:30:20;21.40;99.90
12152;DHT22;6139;51.274;7.128;2023-06-26T04:31:22;21.30;99.90
12152;DHT22;6139;51.274;7.128;2023-06-26T04:32:23;21.30;1.00
12152;DHT22;6139;51.274;7.128;2023-06-26T04:33:26;21.30;1.00
12152;DHT22;6139;51.274;7.128;2023-06-26T04:34:28;21.30;1.00
12152;DHT22;6139;51.274;7.128;2023-06-26T04:35:33;21.20;1.00
12152;DHT22;6139;51.274;7.128;2023-06-26T04:36:37;21.20;1.00
12152;DHT22;6139;51.274;7.128;2023-06-26T04:37:40;21.20;1.00
12152;DHT22;6139;51.274;7.128;2023-06-26T04:38:41;21.20;99.90
12152;DHT22;6139;51.274;7.128;2023-06-26T04:39:43;21.20;99.90
12152;DHT22;6139;51.274;7.128;2023-06-26T04:40:44;21.10;99.90
12152;DHT22;6139;51.274;7.128;2023-06-26T04:41:46;21.10;99.90
12152;DHT22;6139;51.274;7.128;2023-06-26T04:42:47;21.10;1.00
12152;DHT22;6139;51.274;7.128;2023-06-26T04:43:49;21.20;1.00
12152;DHT22;6139;51.274;7.128;2023-06-26T04:44:50;21.20;1.00
12152;DHT22;6139;51.274;7.128;2023-06-26T04:45:52;21.20;1.00
12152;DHT22;6139;51.274;7.128;2023-06-26T04:46:52;21.20;1.00
12152;DHT22;6139;51.274;7.128;2023-06-26T04:47:54;21.20;1.00
12152;DHT22;6139;51.274;7.128;2023-06-26T04:48:58;21.20;1.00
12152;DHT22;6139;51.274;7.128;2023-06-26T04:50:00;21.20;1.00
12152;DHT22;6139;51.274;7.128;2023-06-26T04:51:01;21.20;1.00
12152;DHT22;6139;51.274;7.128;2023-06-26T04:52:03;21.20;1.00
12152;DHT22;6139;51.274;7.128;2023-06-26T04:53:05;21.10;1.00
12152;DHT22;6139;51.274;7.128;2023-06-26T04:54:07;21.10;1.00
12152;DHT22;6139;51.274;7.128;2023-06-26T04:55:08;21.10;1.00
12152;DHT22;6139;51.274;7.128;2023-06-26T04:56:10;21.10;1.00
12152;DHT22;6139;51.274;7.128;2023-06-26T04:57:12;21.10;1.00
12152;DHT22;6139;51.274;7.128;2023-06-26T04:58:15;21.10;94.00
12152;DHT22;6139;51.274;7.128;2023-06-26T04:59:17;21.10;99.90
12152;DHT22;6139;51.274;7.128;2023-06-26T05:00:18;21.10;99.90
12152;DHT22;6139;51.274;7.128;2023-06-26T05:01:20;21.10;99.90
12152;DHT22;6139;51.274;7.128;2023-06-26T05:02:21;21.10;99.90
12152;DHT22;6139;51.274;7.128;2023-06-26T05:03:23;21.10;99.90
12152;DHT22;6139;51.274;7.128;2023-06-26T05:04:26;21.10;99.90
12152;DHT22;6139;51.274;7.128;2023-06-26T05:05:28;21.10;99.90
12152;DHT22;6139;51.274;7.128;2023-06-26T05:06:29;21.10;99.90
12152;DHT22;6139;51.274;7.128;2023-06-26T05:07:31;21.10;99.90
12152;DHT22;6139;51.274;7.128;2023-06-26T05:08:33;21.10;99.90
12152;DHT22;6139;51.274;7.128;2023-06-26T05:09:34;21.10;99.90
12152;DHT22;6139;51.274;7.128;2023-06-26T05:10:36;21.10;1.00
12152;DHT22;6139;51.274;7.128;2023-06-26T05:11:37;21.10;1.00
12152;DHT22;6139;51.274;7.128;2023-06-26T05:12:39;21.10;1.00
12152;DHT22;6139;51.274;7.128;2023-06-26T05:13:40;21.10;1.00
12152;DHT22;6139;51.274;7.128;2023-06-26T05:14:42;21.10;1.00
12152;DHT22;6139;51.274;7.128;2023-06-26T05:15:43;21.10;1.00
12152;DHT22;6139;51.274;7.128;2023-06-26T05:16:45;21.10;1.00
12152;DHT22;6139;51.274;7.128;2023-06-26T05:17:46;21.10;1.00
12152;DHT22;6139;51.274;7.128;2023-06-26T05:18:48;21.10;1.00
12152;DHT22;6139;51.274;7.128;2023-06-26T05:19:50;21.10;1.00
12152;DHT22;6139;51.274;7.128;2023-06-26T05:20:52;21.10;1.00
12152;DHT22;6139;51.274;7.128;2023-06-26T05:21:55;21.10;1.00
12152;DHT22;6139;51.274;7.128;2023-06-26T05:22:57;21.10;1.00
12152;DHT22;6139;51.274;7.128;2023-06-26T05:23:59;21.10;1.00
12152;DHT22;6139;51.274;7.128;2023-06-26T05:25:02;21.20;1.00
12152;DHT22;6139;51.274;7.128;2023-06-26T05:26:04;21.20;1.00
12152;DHT22;6139;51.274;7.128;2023-06-26T05:27:07;21.20;1.00
12152;DHT22;6139;51.274;7.128;2023-06-26T05:28:09;21.20;1.00
12152;DHT22;6139;51.274;7.128;2023-06-26T05:29:13;21.20;1.00
12152;DHT22;6139;51.274;7.128;2023-06-26T05:30:15;21.20;1.00
12152;DHT22;6139;51.274;7.128;2023-06-26T05:31:17;21.20;1.00
12152;DHT22;6139;51.274;7.128;2023-06-26T05:32:19;21.20;1.00
12152;DHT22;6139;51.274;7.128;2023-06-26T05:33:24;21.20;1.00
12152;DHT22;6139;51.274;7.128;2023-06-26T05:34:26;21.30;1.00
12152;DHT22;6139;51.274;7.128;2023-06-26T05:35:30;21.20;1.00
12152;DHT22;6139;51.274;7.128;2023-06-26T05:36:33;21.20;1.00
12152;DHT22;6139;51.274;7.128;2023-06-26T05:37:36;21.30;1.00
12152;DHT22;6139;51.274;7.128;2023-06-26T05:38:37;21.30;1.00
12152;DHT22;6139;51.274;7.128;2023-06-26T05:39:40;21.30;1.00
12152;DHT22;6139;51.274;7.128;2023-06-26T05:40:41;21.40;1.00
12152;DHT22;6139;51.274;7.128;2023-06-26T05:41:44;21.40;1.00
12152;DHT22;6139;51.274;7.128;2023-06-26T05:42:46;21.40;1.00
12152;DHT22;6139;51.274;7.128;2023-06-26T05:43:48;21.40;1.00
12152;DHT22;6139;51.274;7.128;2023-06-26T05:44:49;21.40;1.00
12152;DHT22;6139;51.274;7.128;2023-06-26T05:45:51;21.50;1.00
12152;DHT22;6139;51.274;7.128;2023-06-26T05:46:53;21.50;1.00
12152;DHT22;6139;51.274;7.128;2023-06-26T05:47:54;21.50;1.00
12152;DHT22;6139;51.274;7.128;2023-06-26T05:48:56;21.50;1.00
12152;DHT22;6139;51.274;7.128;2023-06-26T05:49:57;21.50;1.00
12152;DHT22;6139;51.274;7.128;2023-06-26T05:51:01;21.40;1.00
12152;DHT22;6139;51.274;7.128;2023-06-26T05:52:05;21.40;1.00
12152;DHT22;6139;51.274;7.128;2023-06-26T05:53:07;21.40;1.00
12152;DHT22;6139;51.274;7.128;2023-06-26T05:54:09;21.50;1.00
12152;DHT22;6139;51.274;7.128;2023-06-26T05:55:13;21.50;1.00
12152;DHT22;6139;51.274;7.128;2023-06-26T05:56:15;21.40;1.00
12152;DHT22;6139;51.274;7.128;2023-06-26T05:57:17;21.40;1.00
12152;DHT22;6139;51.274;7.128;2023-06-26T05:58:19;21.40;1.00
12152;DHT22;6139;51.274;7.128;2023-06-26T05:59:22;21.40;1.00
12152;DHT22;6139;51.274;7.128;2023-06-26T06:00:26;21.40;1.00
12152;DHT22;6139;51.274;7.128;2023-06-26T06:01:28;21.30;1.00
12152;DHT22;6139;51.274;7.128;2023-06-26T06:02:29;21.30;1.00
12152;DHT22;6139;51.274;7.128;2023-06-26T06:03:31;21.30;1.00
12152;DHT22;6139;51.274;7.128;2023-06-26T06:04:33;21.20;1.00
12152;DHT22;6139;51.274;7.128;2023-06-26T06:05:34;21.20;1.00
12152;DHT22;6139;51.274;7.128;2023-06-26T06:06:37;21.20;1.00
12152;DHT22;6139;51.274;7.128;2023-06-26T06:07:38;21.20;1.00
12152;DHT22;6139;51.274;7.128;2023-06-26T06:08:40;21.10;1.00
12152;DHT22;6139;51.274;7.128;2023-06-26T06:09:41;21.10;1.00
12152;DHT22;6139;51.274;7.128;2023-06-26T06:10:42;21.20;1.00
12152;DHT22;6139;51.274;7.128;2023-06-26T06:11:44;21.20;1.00
12152;DHT22;6139;51.274;7.128;2023-06-26T06:12:45;21.20;1.00
12152;DHT22;6139;51.274;7.128;2023-06-26T06:13:47;21.20;1.00
12152;DHT22;6139;51.274;7.128;2023-06-26T06:14:49;21.30;1.00
12152;DHT22;6139;51.274;7.128;2023-06-26T06:15:50;21.30;1.00
12152;DHT22;6139;51.274;7.128;2023-06-26T06:16:52;21.30;1.00
12152;DHT22;6139;51.274;7.128;2023-06-26T06:17:53;21.30;1.00
12152;DHT22;6139;51.274;7.128;2023-06-26T06:18:55;21.30;1.00
12152;DHT22;6139;51.274;7.128;2023-06-26T06:19:56;21.30;1.00
12152;DHT22;6139;51.274;7.128;2023-06-26T06:20:58;21.30;1.00
12152;DHT22;6139;51.274;7.128;2023-06-26T06:22:01;21.30;1.00
12152;DHT22;6139;51.274;7.128;2023-06-26T06:23:03;21.30;1.00
12152;DHT22;6139;51.274;7.128;2023-06-26T06:24:04;21.20;1.00
12152;DHT22;6139;51.274;7.128;2023-06-26T06:25:08;21.20;1.00
12152;DHT22;6139;51.274;7.128;2023-06-26T06:26:09;21.20;1.00
12152;DHT22;6139;51.274;7.128;2023-06-26T06:27:11;21.20;1.00
12152;DHT22;6139;51.274;7.128;2023-06-26T06:28:12;21.30;1.00
12152;DHT22;6139;51.274;7.128;2023-06-26T06:29:16;21.30;1.00
12152;DHT22;6139;51.274;7.128;2023-06-26T06:30:19;21.40;1.00
12152;DHT22;6139;51.274;7.128;2023-06-26T06:31:21;21.40;1.00
12152;DHT22;6139;51.274;7.128;2023-06-26T06:32:22;21.40;1.00
12152;DHT22;6139;51.274;7.128;2023-06-26T06:33:24;21.50;1.00
12152;DHT22;6139;51.274;7.128;2023-06-26T06:34:26;21.50;1.00
12152;DHT22;6139;51.274;7.128;2023-06-26T06:35:27;21.60;1.00
12152;DHT22;6139;51.274;7.128;2023-06-26T06:36:29;21.70;1.00
12152;DHT22;6139;51.274;7.128;2023-06-26T06:37:31;21.70;1.00
12152;DHT22;6139;51.274;7.128;2023-06-26T06:38:33;21.80;1.00
12152;DHT22;6139;51.274;7.128;2023-06-26T06:39:34;21.70;1.00
12152;DHT22;6139;51.274;7.128;2023-06-26T06:40:36;21.70;1.00
12152;DHT22;6139;51.274;7.128;2023-06-26T06:41:37;21.70;1.00
12152;DHT22;6139;51.274;7.128;2023-06-26T06:42:40;21.70;1.00
12152;DHT22;6139;51.274;7.128;2023-06-26T06:43:42;21.70;1.00
12152;DHT22;6139;51.274;7.128;2023-06-26T06:44:44;21.70;1.00
12152;DHT22;6139;51.274;7.128;2023-06-26T06:45:45;21.60;1.00
12152;DHT22;6139;51.274;7.128;2023-06-26T06:46:47;21.60;1.00